createdAt,value
2023-01-19T00:00:33.447Z,5.71
2023-01-19T00:03:00.560Z,6.42
2023-01-19T00:05:27.278Z,6.32
2023-01-19T00:07:54.012Z,6.37
2023-01-19T00:10:20.887Z,7.88
2023-01-19T00:12:47.611Z,7.23
2023-01-19T00:15:14.312Z,7.09
2023-01-19T00:17:41.156Z,7.16
2023-01-19T00:20:09.590Z,5.95
2023-01-19T00:22:36.301Z,7.62
2023-01-19T00:25:03.618Z,5.88
2023-01-19T00:27:34.877Z,6.17
2023-01-19T00:30:02.499Z,4.43
2023-01-19T00:32:29.292Z,4.51
2023-01-19T00:34:56.074Z,5.65
2023-01-19T00:37:23.223Z,6.02
2023-01-19T00:39:50.284Z,5.97
2023-01-19T00:42:35.999Z,5.67
2023-01-19T00:47:39.353Z,5.75
2023-01-19T00:50:08.384Z,3.21
2023-01-19T00:52:35.267Z,4.96
2023-01-19T00:55:02.326Z,5.77
2023-01-19T00:57:29.662Z,5.11
2023-01-19T00:59:57.081Z,6.12
2023-01-19T01:02:24.367Z,6.55
2023-01-19T01:04:54.866Z,7.59
2023-01-19T01:07:22.654Z,6.63
2023-01-19T01:09:49.399Z,4.00
2023-01-19T01:12:16.610Z,6.26
2023-01-19T01:14:43.384Z,6.64
2023-01-19T01:17:11.955Z,4.58
2023-01-19T01:19:39.050Z,3.76
2023-01-19T01:22:06.245Z,0.05
2023-01-19T01:24:33.108Z,3.00
2023-01-19T01:26:59.853Z,5.09
2023-01-19T01:29:26.749Z,3.37
2023-01-19T01:31:53.772Z,4.32
2023-01-19T01:34:20.606Z,4.57
2023-01-19T01:36:47.623Z,5.78
2023-01-19T01:39:14.343Z,6.69
2023-01-19T01:41:41.277Z,7.05
2023-01-19T01:44:49.856Z,6.79
2023-01-19T01:47:41.373Z,5.97
2023-01-19T01:50:15.068Z,4.92
2023-01-19T01:53:07.399Z,5.39
2023-01-19T01:55:46.249Z,4.64
2023-01-19T01:58:14.973Z,7.47
2023-01-19T02:01:00.310Z,5.67
2023-01-19T02:03:28.144Z,7.32
2023-01-19T02:06:00.119Z,7.20
2023-01-19T02:09:02.007Z,7.76
2023-01-19T02:11:49.664Z,6.23
2023-01-19T02:14:16.817Z,4.38
2023-01-19T02:16:43.747Z,5.15
2023-01-19T02:19:16.951Z,5.75
2023-01-19T02:22:05.862Z,5.73
2023-01-19T02:24:33.319Z,5.86
2023-01-19T02:27:00.374Z,7.24
2023-01-19T02:29:28.704Z,5.07
2023-01-19T02:31:56.812Z,7.82
2023-01-19T02:34:23.551Z,7.14
2023-01-19T02:36:54.988Z,7.00
2023-01-19T02:39:38.920Z,4.20
2023-01-19T02:42:13.533Z,5.25
2023-01-19T02:44:43.480Z,7.08
2023-01-19T02:47:10.238Z,5.95
2023-01-19T02:49:37.617Z,6.58
2023-01-19T02:52:04.961Z,7.26
2023-01-19T02:54:43.644Z,4.64
2023-01-19T02:57:26.828Z,3.10
2023-01-19T03:00:09.863Z,6.86
2023-01-19T03:02:55.895Z,5.42
2023-01-19T03:05:50.267Z,4.97
2023-01-19T03:08:30.006Z,4.47
2023-01-19T03:11:04.589Z,4.44
2023-01-19T03:13:44.319Z,3.82
2023-01-19T03:16:25.736Z,2.87
2023-01-19T03:18:56.685Z,3.87
2023-01-19T03:21:27.593Z,4.90
2023-01-19T03:24:00.201Z,3.24
2023-01-19T03:26:32.609Z,4.34
2023-01-19T03:29:02.559Z,3.54
2023-01-19T03:31:33.432Z,5.40
2023-01-19T03:34:06.789Z,5.09
2023-01-19T03:36:42.515Z,6.84
2023-01-19T03:39:11.338Z,5.57
2023-01-19T03:41:41.360Z,5.97
2023-01-19T03:44:09.187Z,5.68
2023-01-19T03:46:36.333Z,4.92
2023-01-19T03:49:03.695Z,6.13
2023-01-19T03:51:30.827Z,5.57
2023-01-19T03:53:57.684Z,4.50
2023-01-19T03:56:25.872Z,4.44
2023-01-19T03:58:52.810Z,6.02
2023-01-19T04:01:24.166Z,4.36
2023-01-19T04:03:52.458Z,3.49
2023-01-19T04:06:21.517Z,7.51
2023-01-19T04:08:50.453Z,4.21
2023-01-19T04:11:18.050Z,6.48
2023-01-19T04:13:45.031Z,5.73
2023-01-19T04:16:12.797Z,6.61
2023-01-19T04:18:40.734Z,5.42
2023-01-19T04:21:08.016Z,7.59
2023-01-19T04:23:35.643Z,7.45
2023-01-19T04:26:05.031Z,7.68
2023-01-19T04:28:33.445Z,2.93
2023-01-19T04:31:00.323Z,5.10
2023-01-19T04:33:28.030Z,6.08
2023-01-19T04:35:56.124Z,6.20
2023-01-19T04:38:23.932Z,5.86
2023-01-19T04:40:52.839Z,5.56
2023-01-19T04:43:21.108Z,3.88
2023-01-19T04:45:48.590Z,4.81
2023-01-19T04:48:16.484Z,2.09
2023-01-19T04:50:43.201Z,5.38
2023-01-19T04:53:10.831Z,3.67
2023-01-19T04:55:38.887Z,6.76
2023-01-19T04:58:05.931Z,8.20
2023-01-19T05:00:32.640Z,4.58
2023-01-19T05:03:00.139Z,5.99
2023-01-19T05:05:27.480Z,8.16
2023-01-19T05:07:54.980Z,8.09
2023-01-19T05:10:22.120Z,5.25
2023-01-19T05:12:48.870Z,7.98
2023-01-19T05:15:15.646Z,6.95
2023-01-19T05:17:42.372Z,5.94
2023-01-19T05:20:15.711Z,4.79
2023-01-19T05:22:43.474Z,3.17
2023-01-19T05:25:10.368Z,4.99
2023-01-19T05:27:38.710Z,6.23
2023-01-19T05:30:06.789Z,6.77
2023-01-19T05:32:33.692Z,5.80
2023-01-19T05:35:00.596Z,6.02
2023-01-19T05:37:27.435Z,4.81
2023-01-19T05:39:54.910Z,6.61
2023-01-19T05:42:21.850Z,7.37
2023-01-19T05:44:48.779Z,5.50
2023-01-19T05:47:15.696Z,3.35
2023-01-19T05:49:42.427Z,6.43
2023-01-19T05:52:09.173Z,6.78
2023-01-19T05:54:35.870Z,7.93
2023-01-19T05:57:03.176Z,7.60
2023-01-19T05:59:30.108Z,7.69
2023-01-19T06:01:57.311Z,7.46
2023-01-19T06:04:24.480Z,6.76
2023-01-19T06:06:51.584Z,7.06
2023-01-19T06:09:18.878Z,6.17
2023-01-19T06:11:46.766Z,7.24
2023-01-19T06:14:13.883Z,5.89
2023-01-19T06:16:41.289Z,7.42
2023-01-19T06:19:08.290Z,7.57
2023-01-19T06:21:35.446Z,7.46
2023-01-19T06:24:02.214Z,6.13
2023-01-19T06:26:29.341Z,7.69
2023-01-19T06:28:56.106Z,7.16
2023-01-19T06:31:23.074Z,7.38
2023-01-19T06:33:51.724Z,7.96
2023-01-19T06:36:18.478Z,7.50
2023-01-19T06:38:45.495Z,4.26
2023-01-19T06:41:12.216Z,4.49
2023-01-19T06:43:39.004Z,6.08
2023-01-19T06:46:06.092Z,6.08
2023-01-19T06:48:32.905Z,5.73
2023-01-19T06:51:00.011Z,5.10
2023-01-19T06:53:30.600Z,1.98
2023-01-19T06:56:02.078Z,4.93
2023-01-19T06:58:30.787Z,5.07
2023-01-19T07:01:08.073Z,3.11
2023-01-19T07:03:37.312Z,5.36
2023-01-19T07:06:06.738Z,4.99
2023-01-19T07:08:35.515Z,4.20
2023-01-19T07:11:26.404Z,6.78
2023-01-19T07:13:55.597Z,5.49
2023-01-19T07:16:23.416Z,7.73
2023-01-19T07:18:51.011Z,4.24
2023-01-19T07:21:18.201Z,3.95
2023-01-19T07:23:47.747Z,5.57
2023-01-19T07:26:15.621Z,5.45
2023-01-19T07:28:42.370Z,5.87
2023-01-19T07:31:09.723Z,4.82
2023-01-19T07:33:36.695Z,3.01
2023-01-19T07:36:03.510Z,4.92
2023-01-19T07:38:30.244Z,6.24
2023-01-19T07:41:02.225Z,6.70
2023-01-19T07:43:29.132Z,3.46
2023-01-19T07:45:57.931Z,6.77
2023-01-19T07:48:25.122Z,7.61
2023-01-19T07:50:51.863Z,5.53
2023-01-19T07:53:18.661Z,6.07
2023-01-19T07:55:46.048Z,6.63
2023-01-19T07:58:13.046Z,6.32
2023-01-19T08:00:39.871Z,6.77
2023-01-19T08:03:06.820Z,7.51
2023-01-19T08:05:33.895Z,7.47
2023-01-19T08:08:01.277Z,7.15
2023-01-19T08:10:29.151Z,6.97
2023-01-19T08:12:57.080Z,6.62
2023-01-19T08:15:24.928Z,6.31
2023-01-19T08:18:09.894Z,6.67
2023-01-19T08:20:37.635Z,6.79
2023-01-19T08:23:05.601Z,7.02
2023-01-19T08:25:33.616Z,7.52
2023-01-19T08:28:01.602Z,7.70
2023-01-19T08:30:28.706Z,7.90
2023-01-19T08:33:03.796Z,6.15
2023-01-19T08:35:32.414Z,7.40
2023-01-19T08:38:01.568Z,7.46
2023-01-19T08:40:29.913Z,6.02
2023-01-19T08:43:08.359Z,7.80
2023-01-19T08:45:37.202Z,6.72
2023-01-19T08:48:06.939Z,5.15
2023-01-19T08:50:34.614Z,5.00
2023-01-19T08:53:03.685Z,5.17
2023-01-19T08:55:33.698Z,6.19
2023-01-19T08:58:01.786Z,6.39
2023-01-19T09:00:31.652Z,7.20
2023-01-19T09:02:59.704Z,4.63
2023-01-19T09:05:27.393Z,6.52
2023-01-19T09:07:54.581Z,5.85
2023-01-19T09:10:21.316Z,7.35
2023-01-19T09:12:48.211Z,6.20
2023-01-19T09:15:15.040Z,4.58
2023-01-19T09:17:42.555Z,3.53
2023-01-19T09:20:10.337Z,5.00
2023-01-19T09:22:39.804Z,4.36
2023-01-19T09:25:07.595Z,5.44
2023-01-19T09:27:34.883Z,4.84
2023-01-19T09:30:03.247Z,3.89
2023-01-19T09:32:29.956Z,5.53
2023-01-19T09:34:56.945Z,2.22
2023-01-19T09:37:23.819Z,6.49
2023-01-19T09:39:50.598Z,5.60
2023-01-19T09:42:18.536Z,6.55
2023-01-19T09:44:48.198Z,6.42
2023-01-19T09:47:20.252Z,5.05
2023-01-19T09:50:11.503Z,6.28
2023-01-19T09:52:44.027Z,5.48
2023-01-19T09:55:22.831Z,3.96
2023-01-19T09:57:50.075Z,5.53
2023-01-19T10:00:18.553Z,5.51
2023-01-19T10:02:53.287Z,5.39
2023-01-19T10:05:29.568Z,3.08
2023-01-19T10:08:08.657Z,4.42
2023-01-19T10:10:37.727Z,3.57
2023-01-19T10:13:10.781Z,3.09
2023-01-19T10:15:48.186Z,4.61
2023-01-19T10:18:34.642Z,5.46
2023-01-19T10:21:05.694Z,3.35
2023-01-19T10:23:44.556Z,5.65
2023-01-19T10:26:14.479Z,6.54
2023-01-19T10:28:41.352Z,4.24
2023-01-19T10:31:09.787Z,3.43
2023-01-19T10:33:38.527Z,2.59
2023-01-19T10:36:39.924Z,4.59
2023-01-19T10:39:08.453Z,3.71
2023-01-19T10:42:00.496Z,5.10
2023-01-19T10:44:29.543Z,4.35
2023-01-19T10:46:59.814Z,4.33
2023-01-19T10:49:46.783Z,3.18
2023-01-19T10:52:35.736Z,2.79
2023-01-19T10:55:05.621Z,3.19
2023-01-19T10:57:37.421Z,3.10
2023-01-19T11:00:34.828Z,5.71
2023-01-19T11:03:02.397Z,7.54
2023-01-19T11:05:32.054Z,2.45
2023-01-19T11:07:59.628Z,5.54
2023-01-19T11:10:29.279Z,5.39
2023-01-19T11:13:12.710Z,5.42
2023-01-19T11:15:42.456Z,5.31
2023-01-19T11:18:20.731Z,3.49
2023-01-19T11:20:54.077Z,5.21
2023-01-19T11:23:34.716Z,3.56
2023-01-19T11:26:05.219Z,4.14
2023-01-19T11:28:33.738Z,5.47
2023-01-19T11:31:03.779Z,7.05
2023-01-19T11:33:37.723Z,6.66
2023-01-19T11:36:21.253Z,5.31
2023-01-19T11:38:56.864Z,6.25
2023-01-19T11:41:32.357Z,4.45
2023-01-19T11:44:16.335Z,5.54
2023-01-19T11:46:50.166Z,3.43
2023-01-19T11:49:27.448Z,4.99
2023-01-19T11:52:35.363Z,8.10
2023-01-19T11:55:05.915Z,8.93
2023-01-19T11:57:32.856Z,5.16
2023-01-19T12:00:05.228Z,3.99
2023-01-19T12:02:44.225Z,6.11
2023-01-19T12:05:15.968Z,5.95
2023-01-19T12:07:45.472Z,4.27
2023-01-19T12:10:31.486Z,3.20
2023-01-19T12:13:00.478Z,6.31
2023-01-19T12:15:39.339Z,5.62
2023-01-19T12:18:12.794Z,5.96
2023-01-19T12:20:54.303Z,5.66
2023-01-19T12:23:55.099Z,6.93
2023-01-19T12:26:35.215Z,5.63
2023-01-19T12:29:30.698Z,5.94
2023-01-19T12:32:19.065Z,4.91
2023-01-19T12:34:48.160Z,6.29
2023-01-19T12:37:34.241Z,8.08
2023-01-19T12:40:16.859Z,7.25
2023-01-19T12:43:05.622Z,7.30
2023-01-19T12:45:34.934Z,3.31
2023-01-19T12:48:04.035Z,6.14
2023-01-19T12:50:39.051Z,5.89
2023-01-19T12:53:19.302Z,2.98
2023-01-19T12:55:57.915Z,5.08
2023-01-19T12:58:25.773Z,4.13
2023-01-19T13:01:14.502Z,2.34
2023-01-19T13:03:45.878Z,5.59
2023-01-19T13:06:12.941Z,1.54
2023-01-19T13:08:58.044Z,5.88
2023-01-19T13:11:27.886Z,5.39
2023-01-19T13:13:59.326Z,6.29
2023-01-19T13:16:27.432Z,4.97
2023-01-19T13:18:56.154Z,5.38
2023-01-19T13:21:42.934Z,7.15
2023-01-19T13:24:25.965Z,7.17
2023-01-19T13:26:57.531Z,6.45
2023-01-19T13:29:33.931Z,6.21
2023-01-19T13:32:04.227Z,7.74
2023-01-19T13:34:40.378Z,7.13
2023-01-19T13:37:16.398Z,5.61
2023-01-19T13:39:45.214Z,2.79
2023-01-19T13:42:21.121Z,4.62
2023-01-19T13:44:53.914Z,2.99
2023-01-19T13:47:42.045Z,6.21
2023-01-19T13:50:22.546Z,7.14
2023-01-19T13:52:51.417Z,5.42
2023-01-19T13:55:19.230Z,3.19
2023-01-19T13:57:47.623Z,5.03
2023-01-19T14:00:22.615Z,3.07
2023-01-19T14:03:01.023Z,6.33
2023-01-19T14:05:34.376Z,3.09
2023-01-19T14:08:02.369Z,4.32
2023-01-19T14:10:31.542Z,6.80
2023-01-19T14:13:03.748Z,4.34
2023-01-19T14:15:34.105Z,2.68
2023-01-19T14:18:16.847Z,7.36
2023-01-19T14:21:14.578Z,5.29
2023-01-19T14:24:05.811Z,7.63
2023-01-19T14:26:38.582Z,6.12
2023-01-19T14:29:28.949Z,4.94
2023-01-19T14:32:20.787Z,6.00
2023-01-19T14:35:14.560Z,4.82
2023-01-19T14:37:50.655Z,4.45
2023-01-19T14:40:20.491Z,7.20
2023-01-19T14:43:06.263Z,7.12
2023-01-19T14:45:41.504Z,4.59
2023-01-19T14:48:22.109Z,6.59
2023-01-19T14:51:17.137Z,8.27
2023-01-19T14:53:50.788Z,8.42
2023-01-19T14:56:30.046Z,8.37
2023-01-19T14:58:58.388Z,6.96
2023-01-19T15:01:31.291Z,5.06
2023-01-19T15:03:58.747Z,7.43
2023-01-19T15:06:27.144Z,7.16
2023-01-19T15:08:55.042Z,5.60
2023-01-19T15:11:32.662Z,7.47
2023-01-19T15:14:00.471Z,6.55
2023-01-19T15:16:30.515Z,7.68
2023-01-19T15:18:57.883Z,7.03
2023-01-19T15:21:26.696Z,7.46
2023-01-19T15:23:55.918Z,7.43
2023-01-19T15:26:25.441Z,7.06
2023-01-19T15:28:52.813Z,8.41
2023-01-19T15:31:24.185Z,7.75
2023-01-19T15:33:51.698Z,7.43
2023-01-19T15:36:21.539Z,7.71
2023-01-19T15:38:51.610Z,8.07
2023-01-19T15:41:31.905Z,8.33
2023-01-19T15:43:59.211Z,8.63
2023-01-19T15:46:26.971Z,6.61
2023-01-19T15:48:54.254Z,7.64
2023-01-19T15:51:25.438Z,8.92
2023-01-19T15:53:53.075Z,8.00
2023-01-19T15:56:23.522Z,6.98
2023-01-19T15:58:51.534Z,8.90
2023-01-19T16:01:21.832Z,8.90
2023-01-19T16:03:49.335Z,8.83
2023-01-19T16:06:16.903Z,8.93
2023-01-19T16:08:44.816Z,8.56
2023-01-19T16:11:15.129Z,9.19
2023-01-19T16:13:46.166Z,9.17
2023-01-19T16:16:18.418Z,8.69
2023-01-19T16:18:46.067Z,9.09
2023-01-19T16:21:12.832Z,8.19
2023-01-19T16:23:39.978Z,8.60
2023-01-19T16:26:22.575Z,8.49
2023-01-19T16:28:49.458Z,8.33
2023-01-19T16:31:16.728Z,8.92
2023-01-19T16:33:45.363Z,8.66
2023-01-19T16:36:29.867Z,7.28
2023-01-19T16:39:02.849Z,7.88
2023-01-19T16:41:30.056Z,8.61
2023-01-19T16:43:58.157Z,8.73
2023-01-19T16:46:30.026Z,6.27
2023-01-19T16:49:02.649Z,7.07
2023-01-19T16:51:29.969Z,5.84
2023-01-19T16:53:57.313Z,4.62
2023-01-19T16:56:24.390Z,7.49
2023-01-19T16:58:59.126Z,8.17
2023-01-19T17:01:28.339Z,7.63
2023-01-19T17:03:56.368Z,5.91
2023-01-19T17:06:24.483Z,6.69
2023-01-19T17:08:52.765Z,3.69
2023-01-19T17:11:22.894Z,5.33
2023-01-19T17:13:57.465Z,3.37
2023-01-19T17:16:25.213Z,6.98
2023-01-19T17:18:52.623Z,7.59
2023-01-19T17:21:20.313Z,6.99
2023-01-19T17:23:49.013Z,6.29
2023-01-19T17:26:16.847Z,6.31
2023-01-19T17:28:44.197Z,6.38
2023-01-19T17:31:22.492Z,4.57
2023-01-19T17:33:51.198Z,5.03
2023-01-19T17:36:22.601Z,5.46
2023-01-19T17:38:50.486Z,8.17
2023-01-19T17:41:24.076Z,7.83
2023-01-19T17:43:52.742Z,8.58
2023-01-19T17:46:22.080Z,6.31
2023-01-19T17:48:57.767Z,5.48
2023-01-19T17:51:25.404Z,7.82
2023-01-19T17:53:53.210Z,7.98
2023-01-19T17:56:22.816Z,6.93
2023-01-19T17:58:50.224Z,4.34
2023-01-19T18:01:19.551Z,4.00
2023-01-19T18:03:47.012Z,4.53
2023-01-19T18:06:14.828Z,6.49
2023-01-19T18:08:44.575Z,7.37
2023-01-19T18:11:12.038Z,8.46
2023-01-19T18:13:42.070Z,7.64
2023-01-19T18:16:15.120Z,5.99
2023-01-19T18:18:42.111Z,3.41
2023-01-19T18:21:11.947Z,4.78
2023-01-19T18:23:38.983Z,7.34
2023-01-19T18:26:08.632Z,7.63
2023-01-19T18:28:35.687Z,7.88
2023-01-19T18:31:06.797Z,7.86
2023-01-19T18:33:34.230Z,6.81
2023-01-19T18:36:01.424Z,6.03
2023-01-19T18:38:28.920Z,6.73
2023-01-19T18:41:02.695Z,6.10
2023-01-19T18:43:31.086Z,5.52
2023-01-19T18:45:58.667Z,5.35
2023-01-19T18:48:25.978Z,7.04
2023-01-19T18:50:53.850Z,6.98
2023-01-19T18:53:21.617Z,6.90
2023-01-19T18:55:59.797Z,6.39
2023-01-19T18:58:29.986Z,6.40
2023-01-19T19:00:57.501Z,2.87
2023-01-19T19:03:24.850Z,7.01
2023-01-19T19:05:51.730Z,7.42
2023-01-19T19:08:19.031Z,7.76
2023-01-19T19:10:46.510Z,7.77
2023-01-19T19:13:14.436Z,3.22
2023-01-19T19:15:41.204Z,4.24
2023-01-19T19:18:14.064Z,6.92
2023-01-19T19:20:43.781Z,7.64
2023-01-19T19:23:11.726Z,7.82
2023-01-19T19:25:39.138Z,6.80
2023-01-19T19:28:06.155Z,3.41
2023-01-19T19:30:34.764Z,4.15
2023-01-19T19:33:02.094Z,5.21
2023-01-19T19:35:29.287Z,6.76
2023-01-19T19:37:57.997Z,7.29
2023-01-19T19:40:26.646Z,6.74
2023-01-19T19:42:53.906Z,7.50
2023-01-19T19:45:20.704Z,7.82
2023-01-19T19:47:47.435Z,7.41
2023-01-19T19:50:14.579Z,7.83
2023-01-19T19:52:42.307Z,6.09
2023-01-19T19:55:11.152Z,7.13
2023-01-19T19:57:38.623Z,7.09
2023-01-19T20:00:06.626Z,7.29
2023-01-19T20:02:36.699Z,7.20
2023-01-19T20:05:04.657Z,6.52
2023-01-19T20:07:31.799Z,7.06
2023-01-19T20:09:59.299Z,6.78
2023-01-19T20:12:26.177Z,5.39
2023-01-19T20:14:53.170Z,6.83
2023-01-19T20:17:20.985Z,6.91
2023-01-19T20:19:49.034Z,7.34
2023-01-19T20:22:16.140Z,7.51
2023-01-19T20:24:43.454Z,7.06
2023-01-19T20:27:10.669Z,7.41
2023-01-19T20:29:38.188Z,6.85
2023-01-19T20:32:05.026Z,6.83
2023-01-19T20:34:33.720Z,6.17
2023-01-19T20:37:02.142Z,4.97
2023-01-19T20:39:30.294Z,5.02
2023-01-19T20:41:57.167Z,5.75
2023-01-19T20:44:25.465Z,6.44
2023-01-19T20:46:53.377Z,5.90
2023-01-19T20:49:20.571Z,5.80
2023-01-19T20:51:47.802Z,5.63
2023-01-19T20:54:18.400Z,5.22
2023-01-19T20:56:45.131Z,6.18
2023-01-19T20:59:12.672Z,5.71
2023-01-19T21:01:41.091Z,6.26
2023-01-19T21:04:08.510Z,5.57
2023-01-19T21:06:35.722Z,3.22
2023-01-19T21:09:02.693Z,4.48
2023-01-19T21:11:29.931Z,5.85
2023-01-19T21:13:56.788Z,5.25
2023-01-19T21:16:26.198Z,4.68
2023-01-19T21:18:53.678Z,4.81
2023-01-19T21:21:30.518Z,3.37
2023-01-19T21:24:00.574Z,1.80
2023-01-19T21:26:30.113Z,1.39
2023-01-19T21:29:01.950Z,3.67
2023-01-19T21:31:29.254Z,5.42
2023-01-19T21:34:00.139Z,3.85
2023-01-19T21:36:27.145Z,4.39
2023-01-19T21:39:00.790Z,4.22
2023-01-19T21:41:29.093Z,5.21
2023-01-19T21:43:55.875Z,4.98
2023-01-19T21:46:29.703Z,4.84
2023-01-19T21:49:01.452Z,4.67
2023-01-19T21:51:33.474Z,4.70
2023-01-19T21:54:02.156Z,0.31
2023-01-19T21:56:30.421Z,1.54
2023-01-19T21:58:59.448Z,-0.65
2023-01-19T22:01:26.274Z,0.71
2023-01-19T22:03:55.263Z,0.97
2023-01-19T22:06:23.248Z,3.45
2023-01-19T22:08:50.199Z,3.57
2023-01-19T22:11:19.815Z,3.46
2023-01-19T22:13:46.660Z,4.32
2023-01-19T22:16:15.669Z,3.91
2023-01-19T22:18:45.423Z,4.10
2023-01-19T22:21:15.682Z,4.52
2023-01-19T22:23:43.883Z,2.18
2023-01-19T22:26:11.814Z,2.84
2023-01-19T22:28:38.604Z,2.25
2023-01-19T22:31:11.676Z,4.59
2023-01-19T22:33:38.898Z,4.56
2023-01-19T22:36:31.232Z,5.09
2023-01-19T22:39:03.889Z,4.65
2023-01-19T22:41:36.190Z,4.94
2023-01-19T22:44:05.276Z,4.70
2023-01-19T22:46:34.088Z,4.79
2023-01-19T22:49:01.576Z,4.34
2023-01-19T22:51:29.877Z,2.72
2023-01-19T22:53:57.038Z,4.34
2023-01-19T22:56:25.973Z,3.99
2023-01-19T22:58:53.513Z,4.55
2023-01-19T23:01:26.794Z,4.02
2023-01-19T23:03:54.385Z,3.98
2023-01-19T23:06:26.529Z,3.35
2023-01-19T23:08:56.088Z,3.80
2023-01-19T23:11:25.819Z,4.50
2023-01-19T23:13:53.188Z,3.79
2023-01-19T23:16:20.228Z,4.56
2023-01-19T23:18:47.387Z,4.78
2023-01-19T23:21:20.265Z,5.02
2023-01-19T23:23:47.809Z,4.51
2023-01-19T23:26:17.691Z,4.47
2023-01-19T23:28:46.229Z,4.14
2023-01-19T23:31:22.269Z,2.98
2023-01-19T23:33:55.461Z,1.42
2023-01-19T23:36:24.160Z,2.69
2023-01-19T23:38:56.425Z,-0.26
2023-01-19T23:41:24.496Z,0.96
2023-01-19T23:43:52.052Z,2.46
2023-01-19T23:46:19.607Z,3.61
2023-01-19T23:48:46.822Z,3.04
2023-01-19T23:51:16.534Z,2.09
2023-01-19T23:53:43.687Z,3.67
2023-01-19T23:56:19.635Z,4.66
2023-01-19T23:58:48.381Z,5.01
